Monte Mor, Brazil
Current Conditions -  °F | °C
As of 8:00 AM on Friday 24 Oct 2014 (Local Time) from SBKP Reporting Station
Clear Clear  
Wind Chill: 70°   Ceiling: Unl
Heat Index: 70°   Visibility: 6mi
Dew Point: 61°   Wind: 18mph
Humidity: 73%   Direction: 110°ESE
Pressure: 30.03"   Gusts: NA
Location:  22.95°S, 47.32°W
Report Text: SBKP 241000Z 11016KT 9000 NSC 21/16 Q1017
Loading
Personal Weather Stations






























Interactive Weather Map
Tropical Storm Tracking
New forecast layout! Learn more

10-Day Weather Forecast

Advertisements
Track Severe Weather on mobile